createdAt,value
2023-04-09T00:01:09.480Z,8.69
2023-04-09T00:03:39.456Z,8.70
2023-04-09T00:06:07.866Z,8.71
2023-04-09T00:08:36.228Z,8.71
2023-04-09T00:11:04.888Z,8.75
2023-04-09T00:13:39.032Z,8.76
2023-04-09T00:16:08.862Z,8.76
2023-04-09T00:18:37.352Z,8.74
2023-04-09T00:21:05.996Z,8.72
2023-04-09T00:23:34.893Z,8.71
2023-04-09T00:26:03.305Z,8.69
2023-04-09T00:28:31.580Z,8.68
2023-04-09T00:30:59.818Z,8.68
2023-04-09T00:33:28.136Z,8.69
2023-04-09T00:35:57.037Z,8.70
2023-04-09T00:38:25.170Z,8.72
2023-04-09T00:40:53.435Z,8.72
2023-04-09T00:43:21.852Z,8.72
2023-04-09T00:45:50.221Z,8.69
2023-04-09T00:48:18.573Z,8.68
2023-04-09T00:50:46.781Z,8.66
2023-04-09T00:53:16.254Z,8.65
2023-04-09T00:55:46.001Z,8.65
2023-04-09T00:58:14.949Z,8.64
2023-04-09T01:00:43.022Z,8.65
2023-04-09T01:03:11.435Z,8.67
2023-04-09T01:05:50.526Z,8.65
2023-04-09T01:08:47.188Z,8.63
2023-04-09T01:11:32.310Z,8.63
2023-04-09T01:14:19.769Z,8.64
2023-04-09T01:16:56.009Z,8.62
2023-04-09T01:19:44.682Z,8.60
2023-04-09T01:22:35.719Z,8.56
2023-04-09T01:25:15.895Z,8.54
2023-04-09T01:28:19.769Z,8.55
2023-04-09T01:30:51.228Z,8.53
2023-04-09T01:33:21.497Z,8.55
2023-04-09T01:35:51.135Z,8.57
2023-04-09T01:38:22.003Z,8.58
2023-04-09T01:40:51.102Z,8.58
2023-04-09T01:43:20.367Z,8.58
2023-04-09T01:45:48.999Z,8.56
2023-04-09T01:48:17.078Z,8.56
2023-04-09T01:50:45.809Z,8.57
2023-04-09T01:53:14.391Z,8.55
2023-04-09T01:55:42.380Z,8.57
2023-04-09T01:58:10.429Z,8.62
2023-04-09T02:00:43.820Z,8.66
2023-04-09T02:03:22.302Z,8.66
2023-04-09T02:05:57.724Z,8.68
2023-04-09T02:08:28.314Z,8.70
2023-04-09T02:10:59.250Z,8.72
2023-04-09T02:13:30.030Z,8.70
2023-04-09T02:16:00.310Z,8.67
2023-04-09T02:18:30.336Z,8.63
2023-04-09T02:20:59.587Z,8.60
2023-04-09T02:23:27.809Z,8.57
2023-04-09T02:25:56.691Z,8.55
2023-04-09T02:28:24.648Z,8.58
2023-04-09T02:30:52.939Z,8.59
2023-04-09T02:33:21.103Z,8.60
2023-04-09T02:35:49.131Z,8.59
2023-04-09T02:38:17.355Z,8.57
2023-04-09T02:40:45.851Z,8.54
2023-04-09T02:43:13.776Z,8.53
2023-04-09T02:45:41.975Z,8.53
2023-04-09T02:48:09.979Z,8.55
2023-04-09T02:50:37.936Z,8.57
2023-04-09T02:53:06.091Z,8.60
2023-04-09T02:55:34.072Z,8.65
2023-04-09T02:58:02.125Z,8.73
2023-04-09T03:00:30.135Z,8.77
2023-04-09T03:02:58.487Z,8.79
2023-04-09T03:05:26.959Z,8.79
2023-04-09T03:07:55.133Z,8.77
2023-04-09T03:10:23.203Z,8.73
2023-04-09T03:12:51.483Z,8.69
2023-04-09T03:15:19.556Z,8.66
2023-04-09T03:17:47.455Z,8.63
2023-04-09T03:20:15.619Z,8.61
2023-04-09T03:22:43.761Z,8.60
2023-04-09T03:25:21.357Z,8.60
2023-04-09T03:27:50.185Z,8.59
2023-04-09T03:30:23.845Z,8.59
2023-04-09T03:32:51.883Z,8.57
2023-04-09T03:35:21.837Z,8.53
2023-04-09T03:37:50.925Z,8.50
2023-04-09T03:40:19.007Z,8.46
2023-04-09T03:42:47.210Z,8.43
2023-04-09T03:45:16.475Z,8.39
2023-04-09T03:47:46.994Z,8.37
2023-04-09T03:50:15.211Z,8.35
2023-04-09T03:52:52.487Z,8.34
2023-04-09T03:55:21.246Z,8.32
2023-04-09T03:57:49.362Z,8.30
2023-04-09T04:00:19.172Z,8.30
2023-04-09T04:03:07.014Z,8.32
2023-04-09T04:05:50.055Z,8.33
2023-04-09T04:08:18.365Z,8.36
2023-04-09T04:10:46.943Z,8.36
2023-04-09T04:13:16.220Z,8.35
2023-04-09T04:15:50.062Z,8.38
2023-04-09T04:18:21.605Z,8.44
2023-04-09T04:20:52.128Z,8.50
2023-04-09T04:23:20.430Z,8.50
2023-04-09T04:26:11.250Z,8.46
2023-04-09T04:28:40.955Z,8.43
2023-04-09T04:31:11.821Z,8.43
2023-04-09T04:33:42.812Z,8.46
2023-04-09T04:36:14.871Z,8.49
2023-04-09T04:38:46.333Z,8.52
2023-04-09T04:41:21.980Z,8.54
2023-04-09T04:43:57.531Z,8.58
2023-04-09T04:46:25.714Z,8.64
2023-04-09T04:48:54.117Z,8.68
2023-04-09T04:51:22.947Z,8.69
2023-04-09T04:54:01.589Z,8.77
2023-04-09T04:56:30.095Z,8.80
2023-04-09T04:59:09.175Z,8.81
2023-04-09T05:01:47.778Z,8.81
2023-04-09T05:04:16.480Z,8.79
2023-04-09T05:06:44.461Z,8.78
2023-04-09T05:09:14.979Z,8.77
2023-04-09T05:11:49.720Z,8.79
2023-04-09T05:14:21.768Z,8.84
2023-04-09T05:16:50.065Z,8.91
2023-04-09T05:19:19.799Z,8.97
2023-04-09T05:21:48.236Z,9.05
2023-04-09T05:24:21.124Z,9.13
2023-04-09T05:26:49.223Z,9.17
2023-04-09T05:29:17.984Z,9.18
2023-04-09T05:31:46.415Z,9.18
2023-04-09T05:34:47.518Z,9.23
2023-04-09T05:37:16.496Z,9.30
2023-04-09T05:39:47.719Z,9.42
2023-04-09T05:42:16.428Z,9.52
2023-04-09T05:45:12.677Z,9.63
2023-04-09T05:47:47.521Z,9.76
2023-04-09T05:50:21.044Z,9.89
2023-04-09T05:52:50.599Z,10.01
2023-04-09T05:55:18.883Z,10.12
2023-04-09T05:57:53.498Z,10.21
2023-04-09T06:00:22.192Z,10.27
2023-04-09T06:02:51.053Z,10.33
2023-04-09T06:05:19.123Z,10.41
2023-04-09T06:07:48.760Z,10.53
2023-04-09T06:10:16.927Z,10.63
2023-04-09T06:12:45.558Z,10.78
2023-04-09T06:15:13.578Z,10.88
2023-04-09T06:17:41.605Z,10.95
2023-04-09T06:20:10.581Z,10.97
2023-04-09T06:22:38.512Z,10.94
2023-04-09T06:25:07.413Z,10.91
2023-04-09T06:27:35.809Z,10.92
2023-04-09T06:30:04.153Z,11.04
2023-04-09T06:32:33.766Z,11.20
2023-04-09T06:35:10.818Z,11.39
2023-04-09T06:37:39.431Z,11.55
2023-04-09T06:40:08.538Z,11.67
2023-04-09T06:42:36.794Z,11.81
2023-04-09T06:45:16.487Z,12.12
2023-04-09T06:47:45.672Z,12.32
2023-04-09T06:50:14.015Z,12.48
2023-04-09T06:52:42.230Z,12.52
2023-04-09T06:55:10.892Z,12.69
2023-04-09T06:57:39.468Z,12.90
2023-04-09T07:00:08.586Z,13.07
2023-04-09T07:02:37.901Z,13.10
2023-04-09T07:05:06.768Z,13.19
2023-04-09T07:07:34.762Z,13.32
2023-04-09T07:10:03.026Z,13.55
2023-04-09T07:12:32.950Z,13.82
2023-04-09T07:15:03.043Z,14.04
2023-04-09T07:17:31.827Z,14.13
2023-04-09T07:20:00.275Z,14.37
2023-04-09T07:22:29.482Z,14.45
2023-04-09T07:24:57.762Z,14.44
2023-04-09T07:27:27.997Z,14.54
2023-04-09T07:29:57.816Z,14.70
2023-04-09T07:32:28.555Z,14.72
2023-04-09T07:34:57.684Z,14.68
2023-04-09T07:37:27.327Z,14.41
2023-04-09T07:39:55.742Z,14.31
2023-04-09T07:42:24.089Z,14.37
2023-04-09T07:44:52.075Z,14.41
2023-04-09T07:47:20.077Z,14.53
2023-04-09T07:49:48.196Z,14.82
2023-04-09T07:52:16.474Z,14.92
2023-04-09T07:54:44.453Z,14.99
2023-04-09T07:57:12.433Z,15.12
2023-04-09T07:59:41.142Z,15.22
2023-04-09T08:02:09.454Z,15.34
2023-04-09T08:04:38.504Z,15.50
2023-04-09T08:07:06.676Z,15.63
2023-04-09T08:09:34.617Z,15.67
2023-04-09T08:12:02.853Z,15.74
2023-04-09T08:14:30.878Z,15.83
2023-04-09T08:17:00.363Z,15.91
2023-04-09T08:19:28.548Z,15.96
2023-04-09T08:21:56.938Z,16.02
2023-04-09T08:24:25.085Z,15.95
2023-04-09T08:26:53.274Z,15.74
2023-04-09T08:29:21.744Z,15.52
2023-04-09T08:31:49.967Z,15.29
2023-04-09T08:34:21.305Z,15.10
2023-04-09T08:36:50.337Z,15.07
2023-04-09T08:39:21.707Z,15.14
2023-04-09T08:41:52.044Z,15.18
2023-04-09T08:44:21.992Z,15.11
2023-04-09T08:46:51.348Z,15.07
2023-04-09T08:49:19.829Z,15.16
2023-04-09T08:51:51.072Z,15.30
2023-04-09T08:54:22.012Z,15.35
2023-04-09T08:56:50.001Z,15.30
2023-04-09T08:59:21.206Z,15.23
2023-04-09T09:01:54.586Z,15.19
2023-04-09T09:04:22.888Z,15.28
2023-04-09T09:06:51.370Z,15.39
2023-04-09T09:09:19.762Z,15.57
2023-04-09T09:11:51.183Z,15.81
2023-04-09T09:14:20.295Z,16.01
2023-04-09T09:16:58.015Z,16.17
2023-04-09T09:19:26.603Z,16.23
2023-04-09T09:22:06.730Z,16.17
2023-04-09T09:24:48.358Z,16.13
2023-04-09T09:27:40.816Z,16.05
2023-04-09T09:30:11.041Z,15.91
2023-04-09T09:32:39.460Z,15.85
2023-04-09T09:35:08.293Z,15.73
2023-04-09T09:37:36.569Z,15.70
2023-04-09T09:40:05.940Z,15.80
2023-04-09T09:42:34.215Z,15.98
2023-04-09T09:45:17.648Z,15.92
2023-04-09T09:47:46.795Z,15.65
2023-04-09T09:50:15.026Z,15.54
2023-04-09T09:52:46.668Z,15.47
2023-04-09T09:55:17.504Z,15.38
2023-04-09T09:57:48.610Z,15.42
2023-04-09T10:00:18.618Z,15.52
2023-04-09T10:02:57.679Z,15.67
2023-04-09T10:05:27.884Z,15.85
2023-04-09T10:07:58.261Z,15.92
2023-04-09T10:10:27.886Z,16.04
2023-04-09T10:12:56.737Z,16.07
2023-04-09T10:15:26.408Z,16.13
2023-04-09T10:17:56.260Z,16.19
2023-04-09T10:20:42.141Z,16.31
2023-04-09T10:23:19.838Z,16.54
2023-04-09T10:25:47.865Z,16.65
2023-04-09T10:28:18.861Z,16.65
2023-04-09T10:30:46.986Z,16.73
2023-04-09T10:33:17.617Z,16.87
2023-04-09T10:35:49.035Z,17.04
2023-04-09T10:38:16.995Z,17.15
2023-04-09T10:40:53.498Z,17.16
2023-04-09T10:43:22.437Z,17.23
2023-04-09T10:45:54.558Z,17.37
2023-04-09T10:48:26.262Z,17.56
2023-04-09T10:50:55.558Z,17.51
2023-04-09T10:53:25.718Z,17.41
2023-04-09T10:55:54.564Z,17.48
2023-04-09T10:58:22.561Z,17.63
2023-04-09T11:00:51.837Z,17.72
2023-04-09T11:03:29.040Z,17.83
2023-04-09T11:06:11.814Z,17.75
2023-04-09T11:08:39.906Z,17.76
2023-04-09T11:11:08.091Z,17.79
2023-04-09T11:13:36.376Z,17.82
2023-04-09T11:16:07.360Z,17.73
2023-04-09T11:18:37.317Z,17.70
2023-04-09T11:21:06.002Z,17.68
2023-04-09T11:23:34.479Z,17.45
2023-04-09T11:26:03.003Z,17.14
2023-04-09T11:28:31.279Z,17.00
2023-04-09T11:30:59.311Z,17.00
2023-04-09T11:33:34.533Z,17.02
2023-04-09T11:36:05.901Z,17.03
2023-04-09T11:38:34.007Z,17.09
2023-04-09T11:41:02.363Z,17.19
2023-04-09T11:43:30.406Z,17.28
2023-04-09T11:45:59.634Z,17.20
2023-04-09T11:48:28.187Z,17.08
2023-04-09T11:50:57.492Z,17.02
2023-04-09T11:53:31.201Z,16.91
2023-04-09T11:55:59.773Z,16.87
2023-04-09T11:58:28.261Z,17.11
2023-04-09T12:00:58.976Z,17.35
2023-04-09T12:03:33.460Z,17.60
2023-04-09T12:06:03.792Z,17.79
2023-04-09T12:08:35.154Z,17.98
2023-04-09T12:11:10.781Z,18.16
2023-04-09T12:13:44.767Z,18.22
2023-04-09T12:16:13.928Z,18.15
2023-04-09T12:18:42.053Z,18.07
2023-04-09T12:21:10.505Z,17.98
2023-04-09T12:23:38.775Z,17.87
2023-04-09T12:26:06.850Z,17.86
2023-04-09T12:28:36.052Z,18.07
2023-04-09T12:31:04.114Z,18.27
2023-04-09T12:33:32.598Z,18.45
2023-04-09T12:36:00.790Z,18.52
2023-04-09T12:38:29.049Z,18.60
2023-04-09T12:40:57.259Z,18.76
2023-04-09T12:43:25.593Z,18.87
2023-04-09T12:45:53.601Z,18.90
2023-04-09T12:48:21.650Z,18.88
2023-04-09T12:50:49.717Z,18.70
2023-04-09T12:53:17.887Z,18.46
2023-04-09T12:55:46.043Z,18.28
2023-04-09T12:58:13.954Z,18.06
2023-04-09T13:00:42.012Z,17.97
2023-04-09T13:03:10.282Z,17.85
2023-04-09T13:05:38.455Z,17.71
2023-04-09T13:08:07.051Z,17.62
2023-04-09T13:10:35.919Z,17.50
2023-04-09T13:13:03.986Z,17.41
2023-04-09T13:15:32.471Z,17.38
2023-04-09T13:18:00.549Z,17.36
2023-04-09T13:20:28.498Z,17.34
2023-04-09T13:22:57.086Z,17.46
2023-04-09T13:25:25.161Z,17.69
2023-04-09T13:27:53.229Z,17.93
2023-04-09T13:30:24.376Z,18.14
2023-04-09T13:32:52.430Z,18.20
2023-04-09T13:35:20.627Z,18.27
2023-04-09T13:37:48.785Z,18.21
2023-04-09T13:40:17.286Z,18.19
2023-04-09T13:42:45.548Z,18.21
2023-04-09T13:45:13.753Z,18.19
2023-04-09T13:47:43.222Z,18.15
2023-04-09T13:50:13.260Z,18.18
2023-04-09T13:52:41.309Z,18.26
2023-04-09T13:55:09.792Z,18.38
2023-04-09T13:57:37.712Z,18.39
2023-04-09T14:00:09.277Z,18.40
2023-04-09T14:02:37.336Z,18.47
2023-04-09T14:05:06.165Z,18.54
2023-04-09T14:07:34.211Z,18.60
2023-04-09T14:10:02.930Z,18.62
2023-04-09T14:12:31.304Z,18.61
2023-04-09T14:14:59.289Z,18.57
2023-04-09T14:17:27.404Z,18.60
2023-04-09T14:19:55.519Z,18.67
2023-04-09T14:22:23.499Z,18.67
2023-04-09T14:24:51.670Z,18.64
2023-04-09T14:27:20.088Z,18.64
2023-04-09T14:29:48.922Z,18.42
2023-04-09T14:32:17.537Z,18.22
2023-04-09T14:34:46.861Z,18.17
2023-04-09T14:37:14.889Z,18.11
2023-04-09T14:39:42.962Z,17.95
2023-04-09T14:42:11.124Z,17.92
2023-04-09T14:44:39.195Z,17.85
2023-04-09T14:47:07.365Z,17.73
2023-04-09T14:49:35.445Z,17.59
2023-04-09T14:52:03.888Z,17.46
2023-04-09T14:54:33.369Z,17.31
2023-04-09T14:57:03.685Z,17.20
2023-04-09T14:59:31.741Z,17.18
2023-04-09T15:01:59.925Z,17.20
2023-04-09T15:04:28.369Z,17.24
2023-04-09T15:06:56.445Z,17.28
2023-04-09T15:09:24.770Z,17.30
2023-04-09T15:11:54.348Z,17.30
2023-04-09T15:14:23.843Z,17.31
2023-04-09T15:16:55.980Z,17.34
2023-04-09T15:19:24.181Z,17.38
2023-04-09T15:21:52.154Z,17.37
2023-04-09T15:24:20.726Z,17.28
2023-04-09T15:26:49.877Z,17.18
2023-04-09T15:29:19.056Z,17.04
2023-04-09T15:31:47.334Z,16.91
2023-04-09T15:34:16.183Z,16.78
2023-04-09T15:36:46.122Z,16.70
2023-04-09T15:39:14.232Z,16.59
2023-04-09T15:41:42.156Z,16.40
2023-04-09T15:44:10.506Z,16.17
2023-04-09T15:46:38.803Z,15.95
2023-04-09T15:49:07.066Z,15.72
2023-04-09T15:51:35.038Z,15.53
2023-04-09T15:54:03.006Z,15.38
2023-04-09T15:56:31.185Z,15.28
2023-04-09T15:59:02.222Z,15.22
2023-04-09T16:01:30.861Z,15.19
2023-04-09T16:03:59.134Z,15.19
2023-04-09T16:06:27.664Z,15.17
2023-04-09T16:08:56.835Z,15.14
2023-04-09T16:11:24.890Z,15.16
2023-04-09T16:13:54.517Z,15.20
2023-04-09T16:16:24.124Z,15.24
2023-04-09T16:18:52.985Z,15.26
2023-04-09T16:21:21.751Z,15.25
2023-04-09T16:23:49.808Z,15.25
2023-04-09T16:26:17.746Z,15.25
2023-04-09T16:28:45.885Z,15.23
2023-04-09T16:31:14.220Z,15.17
2023-04-09T16:33:42.135Z,15.09
2023-04-09T16:36:10.420Z,15.03
2023-04-09T16:38:38.544Z,14.99
2023-04-09T16:41:06.612Z,14.95
2023-04-09T16:43:34.679Z,14.90
2023-04-09T16:46:02.867Z,14.84
2023-04-09T16:48:31.372Z,14.79
2023-04-09T16:50:59.292Z,14.73
2023-04-09T16:53:27.945Z,14.69
2023-04-09T16:55:55.914Z,14.65
2023-04-09T16:58:24.050Z,14.60
2023-04-09T17:00:52.353Z,14.55
2023-04-09T17:03:20.833Z,14.49
2023-04-09T17:05:49.515Z,14.45
2023-04-09T17:08:21.847Z,14.39
2023-04-09T17:11:02.369Z,14.29
2023-04-09T17:13:34.314Z,14.21
2023-04-09T17:16:02.970Z,14.17
2023-04-09T17:18:31.112Z,14.12
2023-04-09T17:20:59.880Z,14.06
2023-04-09T17:23:28.001Z,14.00
2023-04-09T17:25:57.147Z,13.94
2023-04-09T17:28:25.822Z,13.88
2023-04-09T17:30:53.919Z,13.84
2023-04-09T17:33:23.368Z,13.79
2023-04-09T17:35:51.539Z,13.73
2023-04-09T17:38:21.753Z,13.69
2023-04-09T17:40:49.940Z,13.66
2023-04-09T17:43:18.608Z,13.63
2023-04-09T17:45:49.354Z,13.58
2023-04-09T17:48:18.353Z,13.55
2023-04-09T17:50:47.364Z,13.50
2023-04-09T17:53:15.359Z,13.45
2023-04-09T17:55:48.874Z,13.40
2023-04-09T17:58:17.359Z,13.36
2023-04-09T18:00:45.528Z,13.32
2023-04-09T18:03:13.727Z,13.27
2023-04-09T18:05:42.754Z,13.22
2023-04-09T18:08:10.867Z,13.20
2023-04-09T18:10:38.904Z,13.19
2023-04-09T18:13:07.057Z,13.16
2023-04-09T18:15:35.107Z,13.12
2023-04-09T18:18:03.181Z,13.08
2023-04-09T18:20:31.123Z,13.06
2023-04-09T18:22:59.116Z,13.03
2023-04-09T18:25:28.796Z,12.95
2023-04-09T18:27:57.383Z,12.89
2023-04-09T18:30:26.523Z,12.86
2023-04-09T18:32:54.590Z,12.80
2023-04-09T18:35:22.945Z,12.75
2023-04-09T18:37:51.369Z,12.70
2023-04-09T18:40:20.405Z,12.63
2023-04-09T18:42:52.621Z,12.55
2023-04-09T18:45:20.758Z,12.45
2023-04-09T18:47:48.852Z,12.37
2023-04-09T18:50:18.833Z,12.29
2023-04-09T18:52:46.897Z,12.23
2023-04-09T18:55:15.904Z,12.21
2023-04-09T18:57:44.504Z,12.18
2023-04-09T19:00:13.167Z,12.18
2023-04-09T19:02:41.574Z,12.17
2023-04-09T19:05:10.578Z,12.17
2023-04-09T19:07:38.931Z,12.16
2023-04-09T19:10:07.647Z,12.15
2023-04-09T19:12:35.711Z,12.13
2023-04-09T19:15:05.107Z,12.12
2023-04-09T19:17:34.238Z,12.10
2023-04-09T19:20:03.368Z,12.08
2023-04-09T19:22:31.543Z,12.07
2023-04-09T19:24:59.549Z,12.04
2023-04-09T19:27:27.649Z,11.99
2023-04-09T19:29:59.069Z,11.98
2023-04-09T19:32:27.741Z,11.97
2023-04-09T19:34:56.051Z,11.97
2023-04-09T19:37:28.336Z,11.97
2023-04-09T19:39:57.978Z,12.00
2023-04-09T19:42:28.870Z,12.03
2023-04-09T19:44:56.978Z,12.05
2023-04-09T19:47:25.093Z,12.08
2023-04-09T19:49:56.395Z,12.09
2023-04-09T19:52:24.431Z,12.11
2023-04-09T19:54:57.083Z,12.10
2023-04-09T19:57:26.662Z,12.08
2023-04-09T19:59:55.624Z,12.07
2023-04-09T20:02:24.188Z,12.04
2023-04-09T20:04:52.606Z,12.02
2023-04-09T20:07:20.890Z,12.01
2023-04-09T20:09:49.793Z,11.97
2023-04-09T20:12:17.840Z,11.92
2023-04-09T20:14:49.002Z,11.91
2023-04-09T20:17:19.970Z,11.90
2023-04-09T20:19:47.907Z,11.94
2023-04-09T20:22:17.088Z,11.97
2023-04-09T20:24:45.018Z,11.97
2023-04-09T20:27:13.024Z,11.98
2023-04-09T20:29:42.221Z,11.99
2023-04-09T20:32:10.435Z,11.98
2023-04-09T20:34:38.465Z,11.98
2023-04-09T20:37:06.845Z,11.98
2023-04-09T20:39:34.818Z,11.97
2023-04-09T20:42:02.784Z,11.96
2023-04-09T20:44:33.806Z,11.91
2023-04-09T20:47:02.956Z,11.86
2023-04-09T20:49:30.995Z,11.82
2023-04-09T20:51:59.710Z,11.79
2023-04-09T20:54:29.633Z,11.78
2023-04-09T20:56:57.965Z,11.76
2023-04-09T20:59:26.572Z,11.78
2023-04-09T21:01:57.360Z,11.78
2023-04-09T21:04:26.336Z,11.79
2023-04-09T21:06:54.753Z,11.80
2023-04-09T21:09:22.828Z,11.76
2023-04-09T21:11:51.202Z,11.69
2023-04-09T21:14:19.499Z,11.60
2023-04-09T21:16:47.784Z,11.51
2023-04-09T21:19:16.239Z,11.41
2023-04-09T21:21:44.182Z,11.31
2023-04-09T21:24:12.179Z,11.22
2023-04-09T21:26:51.176Z,11.11
2023-04-09T21:29:23.895Z,11.02
2023-04-09T21:31:51.862Z,10.95
2023-04-09T21:34:20.035Z,10.88
2023-04-09T21:36:48.734Z,10.82
2023-04-09T21:39:16.932Z,10.76
2023-04-09T21:41:44.976Z,10.68
2023-04-09T21:44:13.673Z,10.59
2023-04-09T21:46:41.951Z,10.48
2023-04-09T21:49:10.108Z,10.39
2023-04-09T21:51:40.128Z,10.28
2023-04-09T21:54:09.869Z,10.18
2023-04-09T21:56:39.552Z,10.06
2023-04-09T21:59:07.845Z,9.93
2023-04-09T22:01:36.091Z,9.83
2023-04-09T22:04:04.568Z,9.74
2023-04-09T22:06:33.375Z,9.68
2023-04-09T22:09:02.169Z,9.63
2023-04-09T22:11:30.746Z,9.56
2023-04-09T22:13:59.106Z,9.52
2023-04-09T22:16:27.420Z,9.49
2023-04-09T22:18:56.638Z,9.44
2023-04-09T22:21:25.485Z,9.37
2023-04-09T22:23:53.646Z,9.24
2023-04-09T22:26:22.229Z,9.12
2023-04-09T22:28:50.521Z,9.03
2023-04-09T22:31:18.552Z,8.97
2023-04-09T22:33:46.644Z,8.89
2023-04-09T22:36:14.938Z,8.85
2023-04-09T22:38:42.990Z,8.85
2023-04-09T22:41:11.064Z,8.88
2023-04-09T22:43:39.177Z,8.89
2023-04-09T22:46:07.411Z,8.91
2023-04-09T22:48:40.825Z,8.97
2023-04-09T22:51:13.895Z,9.02
2023-04-09T22:53:42.088Z,9.04
2023-04-09T22:56:10.215Z,9.01
2023-04-09T22:58:39.036Z,8.92
2023-04-09T23:01:07.819Z,8.84
2023-04-09T23:03:36.121Z,8.74
2023-04-09T23:06:04.383Z,8.65
2023-04-09T23:08:32.434Z,8.56
2023-04-09T23:11:00.434Z,8.49
2023-04-09T23:13:28.378Z,8.43
2023-04-09T23:15:56.389Z,8.38
2023-04-09T23:18:24.415Z,8.37
2023-04-09T23:20:52.483Z,8.33
2023-04-09T23:23:20.503Z,8.29
2023-04-09T23:25:48.436Z,8.21
2023-04-09T23:28:16.721Z,8.11
2023-04-09T23:30:44.668Z,8.02
2023-04-09T23:33:12.758Z,7.95
2023-04-09T23:35:41.213Z,7.89
2023-04-09T23:38:09.609Z,7.83
2023-04-09T23:40:37.561Z,7.79
2023-04-09T23:43:05.539Z,7.76
2023-04-09T23:45:33.528Z,7.73
2023-04-09T23:48:02.547Z,7.71
2023-04-09T23:50:31.026Z,7.66
2023-04-09T23:53:01.204Z,7.59
2023-04-09T23:55:29.368Z,7.51
2023-04-09T23:57:57.444Z,7.46
